Appleton, MN

7:19 AM CST on December 10, 2019 (GMT -0600)
Appleton Municipal | | Change Station
Active Advisory: Wind Chill Advisory

Elev 1017 ft 45.23 °N, 96.00 °W | Updated 9 minutes ago

Overcast
Overcast
1 °F
Feels Like -14 °F
N
10
Wind Variable Wind from NNW

Today
High -- | Low -- °F
--% Chance of Precip.
Yesterday
High -- | Low -- °F
Precip. -- in
Pressure 30.21 in
Visibility 7.0 miles
Clouds Overcast 2200 ft
Windchill -14 °F
Dew Point -4 °F
Humidity 78%
Rainfall 0.00 in
Snow Depth Not available.
7:51 AM 4:41 PM
Waxing Gibbous, 97% visible
METAR KAQP 101310Z AUTO 33009KT 7SM OVC022 M17/M20 A3021 RMK AO2
Pressure 30.21 in
Visibility 7.0 miles
Clouds Overcast 2200 ft
Windchill -14 °F
Dew Point -4 °F
Humidity 78%
Rainfall 0.00 in
Snow Depth Not available.
7:51 AM 4:41 PM
Waxing Gibbous, 97% visible
METAR KAQP 101310Z AUTO 33009KT 7SM OVC022 M17/M20 A3021 RMK AO2

Get Your Daily Forecast Email!

Thanks for signing up!

Be on the lookout for a verification email in your inbox.

You'll start receiving severe weather alerts in your inbox..

×

10-Day Weather Forecast

Almanac

Astronomy

Dec. 10, 2019 Rise Set
Actual Time
Civil Twilight
Nautical Twilight
Astronomical Twilight
Moon
Length of Visible Light
Length of Day
Tomorrow will be .
, % of the Moon is Illuminated

Today's Extremes

State Highs State Lows

Community

WunderPhotos

Category 6

Welcome to Category 6. This is the collective home for Weather Underground's featured writeups by Dr. Jeff Masters (right), Bob Henson (left), Chris Burt, and other regular contributors.

Nearby

Air Quality

  Air Quality AQ Index Pollutant
Not available.

Snow Depth

Station Depth Elevation

Earthquake Activity

City Distance Mag. Time & Date
Minimum magnitude displayed is 2.5.

Coastal Water Temperatures

Place Temperature

Stations

Nearby Weather Stations

Station Location Temp. Windchill Dew Point Humidity Wind Precip. Elev Updated Type
                   

Watches & Warnings

Wind Chill Advisory
Issued: 3:12 AM CST Dec. 10, 2019 – National Weather Service

... Wind Chill Advisory remains in effect until noon CST today...
... Wind Chill Advisory in effect from 9 PM this evening to noon
CST Wednesday...

* what... for the first Wind Chill Advisory, very cold wind
chills. Wind chills as low as 30 below zero. For the second
Wind Chill Advisory, very cold wind chills expected. Wind
chills as low as 35 below zero.

* Where... portions of central, east central and west central
Minnesota.

* When... for the first Wind Chill Advisory, until noon CST
today. For the second Wind Chill Advisory, from 9 PM this
evening to noon CST Wednesday.

* Impacts... the dangerously cold wind chills could cause
frostbite on exposed skin in as little as 10 minutes.

Precautionary/preparedness actions...

Use caution while traveling outside. Wear appropriate clothing, a
hat, and gloves.